Cayman Brac, Cayman Islands
Current Conditions -  °F | °C
As of 12:00 PM on Thursday 27 Nov 2014 (Local Time) from MWCR Reporting Station
Broken Clouds Broken Clouds  
Wind Chill: 81°   Ceiling: 1400
Heat Index: 87°   Visibility: 6mi
Dew Point: 77°   Wind: 15mph
Humidity: 89%   Direction: 40°NE
Pressure: 30.03"   Gusts: NA
Location:  19.72°N, 79.81°W
Report Text: MWCR 271700Z 04013KT 320V040 9999 BKN014 27/25 Q1017
Loading
Personal Weather Stations






























Interactive Weather Map New forecast layout! Learn more

10-Day Weather Forecast

Advertisements
Track Severe Weather on mobile